sensor_id;sensor_type;location;lat;lon;timestamp;temperature;humidity
10654;DHT22;5375;51.250;6.776;2023-07-13T00:02:07;25.60;47.70
10654;DHT22;5375;51.250;6.776;2023-07-13T00:04:33;25.50;47.70
10654;DHT22;5375;51.250;6.776;2023-07-13T00:11:53;25.60;47.60
10654;DHT22;5375;51.250;6.776;2023-07-13T00:14:18;25.50;47.60
10654;DHT22;5375;51.250;6.776;2023-07-13T00:19:11;25.50;47.60
10654;DHT22;5375;51.250;6.776;2023-07-13T00:21:38;25.50;47.70
10654;DHT22;5375;51.250;6.776;2023-07-13T00:28:58;25.50;47.60
10654;DHT22;5375;51.250;6.776;2023-07-13T00:31:24;25.50;47.60
10654;DHT22;5375;51.250;6.776;2023-07-13T00:41:09;25.50;47.60
10654;DHT22;5375;51.250;6.776;2023-07-13T00:48:32;25.50;47.60
10654;DHT22;5375;51.250;6.776;2023-07-13T00:51:00;25.50;47.60
10654;DHT22;5375;51.250;6.776;2023-07-13T00:53:27;25.50;47.60
10654;DHT22;5375;51.250;6.776;2023-07-13T00:55:55;25.50;47.70
10654;DHT22;5375;51.250;6.776;2023-07-13T00:58:22;25.50;47.70
10654;DHT22;5375;51.250;6.776;2023-07-13T01:03:16;25.50;47.80
10654;DHT22;5375;51.250;6.776;2023-07-13T01:08:08;25.50;47.90
10654;DHT22;5375;51.250;6.776;2023-07-13T01:15:45;25.40;47.80
10654;DHT22;5375;51.250;6.776;2023-07-13T01:18:18;25.40;48.00
10654;DHT22;5375;51.250;6.776;2023-07-13T01:21:00;25.50;48.30
10654;DHT22;5375;51.250;6.776;2023-07-13T01:23:27;25.50;48.40
10654;DHT22;5375;51.250;6.776;2023-07-13T01:28:21;25.50;48.30
10654;DHT22;5375;51.250;6.776;2023-07-13T01:30:47;25.50;48.30
10654;DHT22;5375;51.250;6.776;2023-07-13T01:33:15;25.50;48.10
10654;DHT22;5375;51.250;6.776;2023-07-13T01:35:41;25.50;48.00
10654;DHT22;5375;51.250;6.776;2023-07-13T01:40:35;25.50;48.00
10654;DHT22;5375;51.250;6.776;2023-07-13T01:43:01;25.40;47.80
10654;DHT22;5375;51.250;6.776;2023-07-13T01:52:45;25.40;47.80
10654;DHT22;5375;51.250;6.776;2023-07-13T02:00:08;25.40;47.70
10654;DHT22;5375;51.250;6.776;2023-07-13T02:14:46;25.30;47.50
10654;DHT22;5375;51.250;6.776;2023-07-13T02:19:37;25.40;47.50
10654;DHT22;5375;51.250;6.776;2023-07-13T02:22:03;25.30;47.40
10654;DHT22;5375;51.250;6.776;2023-07-13T02:26:55;25.40;47.50
10654;DHT22;5375;51.250;6.776;2023-07-13T02:31:46;25.30;47.50
10654;DHT22;5375;51.250;6.776;2023-07-13T02:39:05;25.40;48.20
10654;DHT22;5375;51.250;6.776;2023-07-13T02:41:31;25.40;48.30
10654;DHT22;5375;51.250;6.776;2023-07-13T02:44:01;25.40;48.40
10654;DHT22;5375;51.250;6.776;2023-07-13T02:46:31;25.40;48.10
10654;DHT22;5375;51.250;6.776;2023-07-13T03:01:10;25.30;47.60
10654;DHT22;5375;51.250;6.776;2023-07-13T03:03:37;25.40;47.70
10654;DHT22;5375;51.250;6.776;2023-07-13T03:06:03;25.30;47.60
10654;DHT22;5375;51.250;6.776;2023-07-13T03:08:30;25.30;47.60
10654;DHT22;5375;51.250;6.776;2023-07-13T03:11:01;25.30;47.60
10654;DHT22;5375;51.250;6.776;2023-07-13T03:25:37;25.30;47.70
10654;DHT22;5375;51.250;6.776;2023-07-13T03:30:29;25.20;47.70
10654;DHT22;5375;51.250;6.776;2023-07-13T03:32:55;25.20;47.70
10654;DHT22;5375;51.250;6.776;2023-07-13T04:02:07;25.20;47.70
10654;DHT22;5375;51.250;6.776;2023-07-13T04:04:33;25.20;47.70
10654;DHT22;5375;51.250;6.776;2023-07-13T04:06:59;25.20;47.80
10654;DHT22;5375;51.250;6.776;2023-07-13T04:11:51;25.30;47.80
10654;DHT22;5375;51.250;6.776;2023-07-13T04:16:43;25.30;47.80
10654;DHT22;5375;51.250;6.776;2023-07-13T04:19:09;25.30;47.70
10654;DHT22;5375;51.250;6.776;2023-07-13T04:21:36;25.30;47.70
10654;DHT22;5375;51.250;6.776;2023-07-13T04:24:03;25.30;47.80
10654;DHT22;5375;51.250;6.776;2023-07-13T04:26:29;25.30;47.80
10654;DHT22;5375;51.250;6.776;2023-07-13T04:28:55;25.20;47.90
10654;DHT22;5375;51.250;6.776;2023-07-13T04:31:21;25.20;47.90
10654;DHT22;5375;51.250;6.776;2023-07-13T04:36:14;25.20;47.80
10654;DHT22;5375;51.250;6.776;2023-07-13T04:38:40;25.20;47.90
10654;DHT22;5375;51.250;6.776;2023-07-13T04:41:08;25.20;47.90
10654;DHT22;5375;51.250;6.776;2023-07-13T04:43:34;25.20;48.00
10654;DHT22;5375;51.250;6.776;2023-07-13T04:46:11;25.10;47.90
10654;DHT22;5375;51.250;6.776;2023-07-13T04:48:37;25.10;48.00
10654;DHT22;5375;51.250;6.776;2023-07-13T04:51:03;25.10;48.00
10654;DHT22;5375;51.250;6.776;2023-07-13T04:55:55;25.00;48.00
10654;DHT22;5375;51.250;6.776;2023-07-13T04:58:22;25.00;48.00
10654;DHT22;5375;51.250;6.776;2023-07-13T05:03:14;25.00;48.10
10654;DHT22;5375;51.250;6.776;2023-07-13T05:08:08;25.00;48.10
10654;DHT22;5375;51.250;6.776;2023-07-13T05:10:35;25.00;48.10
10654;DHT22;5375;51.250;6.776;2023-07-13T05:22:46;25.00;48.20
10654;DHT22;5375;51.250;6.776;2023-07-13T05:27:41;25.00;48.30
10654;DHT22;5375;51.250;6.776;2023-07-13T05:30:07;25.10;48.30
10654;DHT22;5375;51.250;6.776;2023-07-13T05:35:02;25.10;48.30
10654;DHT22;5375;51.250;6.776;2023-07-13T05:47:12;25.00;48.20
10654;DHT22;5375;51.250;6.776;2023-07-13T05:49:39;25.00;48.20
10654;DHT22;5375;51.250;6.776;2023-07-13T06:04:17;25.00;48.30
10654;DHT22;5375;51.250;6.776;2023-07-13T06:21:21;25.00;48.40
10654;DHT22;5375;51.250;6.776;2023-07-13T06:23:49;25.00;48.50
10654;DHT22;5375;51.250;6.776;2023-07-13T06:26:19;25.00;48.50
10654;DHT22;5375;51.250;6.776;2023-07-13T06:31:12;25.10;48.60
10654;DHT22;5375;51.250;6.776;2023-07-13T06:33:38;25.10;48.60
10654;DHT22;5375;51.250;6.776;2023-07-13T06:36:06;25.10;48.70
10654;DHT22;5375;51.250;6.776;2023-07-13T06:38:33;25.00;48.70
10654;DHT22;5375;51.250;6.776;2023-07-13T06:48:18;25.00;48.90
10654;DHT22;5375;51.250;6.776;2023-07-13T06:50:45;25.10;49.00
10654;DHT22;5375;51.250;6.776;2023-07-13T06:53:12;25.10;49.00
10654;DHT22;5375;51.250;6.776;2023-07-13T06:55:38;25.00;49.00
10654;DHT22;5375;51.250;6.776;2023-07-13T06:58:04;25.10;49.20
10654;DHT22;5375;51.250;6.776;2023-07-13T07:05:22;25.00;49.30
10654;DHT22;5375;51.250;6.776;2023-07-13T07:07:49;25.00;49.30
10654;DHT22;5375;51.250;6.776;2023-07-13T07:24:53;24.90;49.80
10654;DHT22;5375;51.250;6.776;2023-07-13T07:27:19;25.00;49.80
10654;DHT22;5375;51.250;6.776;2023-07-13T07:37:03;24.90;50.00
10654;DHT22;5375;51.250;6.776;2023-07-13T07:39:29;25.00;50.30
10654;DHT22;5375;51.250;6.776;2023-07-13T07:41:55;25.00;50.30
10654;DHT22;5375;51.250;6.776;2023-07-13T07:44:20;25.10;50.20
10654;DHT22;5375;51.250;6.776;2023-07-13T07:54:05;24.90;50.40
10654;DHT22;5375;51.250;6.776;2023-07-13T07:58:56;24.90;50.50
10654;DHT22;5375;51.250;6.776;2023-07-13T08:03:48;25.00;50.50
10654;DHT22;5375;51.250;6.776;2023-07-13T08:08:40;25.00;50.60
10654;DHT22;5375;51.250;6.776;2023-07-13T08:11:07;25.00;50.50
10654;DHT22;5375;51.250;6.776;2023-07-13T08:23:22;24.90;50.70
10654;DHT22;5375;51.250;6.776;2023-07-13T08:25:52;25.00;50.80
10654;DHT22;5375;51.250;6.776;2023-07-13T08:30:43;25.00;50.80
10654;DHT22;5375;51.250;6.776;2023-07-13T08:40:27;25.00;50.90
10654;DHT22;5375;51.250;6.776;2023-07-13T08:42:57;25.00;50.90
10654;DHT22;5375;51.250;6.776;2023-07-13T08:50:22;25.00;50.80
10654;DHT22;5375;51.250;6.776;2023-07-13T08:55:21;25.00;50.80
10654;DHT22;5375;51.250;6.776;2023-07-13T08:57:53;24.90;50.80
10654;DHT22;5375;51.250;6.776;2023-07-13T09:00:20;25.00;50.90
10654;DHT22;5375;51.250;6.776;2023-07-13T09:02:57;24.90;50.80
10654;DHT22;5375;51.250;6.776;2023-07-13T09:05:33;24.90;50.80
10654;DHT22;5375;51.250;6.776;2023-07-13T09:10:46;24.90;50.80
10654;DHT22;5375;51.250;6.776;2023-07-13T09:16:00;24.90;50.80
10654;DHT22;5375;51.250;6.776;2023-07-13T09:18:35;24.90;50.80
10654;DHT22;5375;51.250;6.776;2023-07-13T09:21:50;24.90;50.70
10654;DHT22;5375;51.250;6.776;2023-07-13T09:24:01;24.80;50.70
10654;DHT22;5375;51.250;6.776;2023-07-13T09:26:29;24.90;50.80
10654;DHT22;5375;51.250;6.776;2023-07-13T09:29:04;24.90;50.80
10654;DHT22;5375;51.250;6.776;2023-07-13T09:31:49;24.90;50.70
10654;DHT22;5375;51.250;6.776;2023-07-13T09:34:16;24.90;50.80
10654;DHT22;5375;51.250;6.776;2023-07-13T09:36:42;24.90;50.70
10654;DHT22;5375;51.250;6.776;2023-07-13T09:39:26;24.90;50.70
10654;DHT22;5375;51.250;6.776;2023-07-13T09:47:20;24.90;50.50
10654;DHT22;5375;51.250;6.776;2023-07-13T09:49:57;24.90;50.50
10654;DHT22;5375;51.250;6.776;2023-07-13T09:52:24;24.90;50.40
10654;DHT22;5375;51.250;6.776;2023-07-13T09:54:51;24.90;50.30
10654;DHT22;5375;51.250;6.776;2023-07-13T09:57:22;24.80;50.20
10654;DHT22;5375;51.250;6.776;2023-07-13T09:59:50;24.90;50.20
10654;DHT22;5375;51.250;6.776;2023-07-13T10:02:35;24.90;50.20
10654;DHT22;5375;51.250;6.776;2023-07-13T10:05:11;24.80;50.10
10654;DHT22;5375;51.250;6.776;2023-07-13T10:07:44;24.80;50.10
10654;DHT22;5375;51.250;6.776;2023-07-13T10:10:21;24.80;50.10
10654;DHT22;5375;51.250;6.776;2023-07-13T10:12:48;24.80;50.10
10654;DHT22;5375;51.250;6.776;2023-07-13T10:15:20;24.80;50.00
10654;DHT22;5375;51.250;6.776;2023-07-13T10:22:44;24.80;50.10
10654;DHT22;5375;51.250;6.776;2023-07-13T10:25:23;24.80;50.10
10654;DHT22;5375;51.250;6.776;2023-07-13T10:27:52;24.70;50.10
10654;DHT22;5375;51.250;6.776;2023-07-13T10:30:25;24.80;50.10
10654;DHT22;5375;51.250;6.776;2023-07-13T10:35:21;24.80;50.30
10654;DHT22;5375;51.250;6.776;2023-07-13T10:37:55;24.80;50.40
10654;DHT22;5375;51.250;6.776;2023-07-13T10:40:27;24.80;50.40
10654;DHT22;5375;51.250;6.776;2023-07-13T10:42:58;24.80;50.30
10654;DHT22;5375;51.250;6.776;2023-07-13T10:45:25;24.80;50.20
10654;DHT22;5375;51.250;6.776;2023-07-13T10:47:53;24.80;50.10
10654;DHT22;5375;51.250;6.776;2023-07-13T10:50:26;24.80;50.00
10654;DHT22;5375;51.250;6.776;2023-07-13T10:52:54;24.80;50.00
10654;DHT22;5375;51.250;6.776;2023-07-13T10:58:21;24.70;50.00
10654;DHT22;5375;51.250;6.776;2023-07-13T11:03:35;24.70;50.20
10654;DHT22;5375;51.250;6.776;2023-07-13T11:06:29;24.80;50.30
10654;DHT22;5375;51.250;6.776;2023-07-13T11:08:58;24.80;50.30
10654;DHT22;5375;51.250;6.776;2023-07-13T11:18:53;24.90;50.10
10654;DHT22;5375;51.250;6.776;2023-07-13T11:21:33;24.80;50.00
10654;DHT22;5375;51.250;6.776;2023-07-13T11:31:41;27.70;51.50
10654;DHT22;5375;51.250;6.776;2023-07-13T11:34:14;24.90;49.70
10654;DHT22;5375;51.250;6.776;2023-07-13T11:36:43;25.00;49.70
10654;DHT22;5375;51.250;6.776;2023-07-13T11:39:36;25.00;49.60
10654;DHT22;5375;51.250;6.776;2023-07-13T11:42:05;25.00;49.50
10654;DHT22;5375;51.250;6.776;2023-07-13T11:44:34;25.00;49.50
10654;DHT22;5375;51.250;6.776;2023-07-13T11:47:11;25.10;49.40
10654;DHT22;5375;51.250;6.776;2023-07-13T11:49:44;25.10;49.40
10654;DHT22;5375;51.250;6.776;2023-07-13T11:52:16;25.10;49.40
10654;DHT22;5375;51.250;6.776;2023-07-13T11:54:53;25.20;49.40
10654;DHT22;5375;51.250;6.776;2023-07-13T11:57:29;25.20;49.40
10654;DHT22;5375;51.250;6.776;2023-07-13T11:59:58;25.20;49.30
10654;DHT22;5375;51.250;6.776;2023-07-13T12:02:39;25.20;49.20
10654;DHT22;5375;51.250;6.776;2023-07-13T12:05:11;25.20;49.20
10654;DHT22;5375;51.250;6.776;2023-07-13T12:07:38;25.20;49.20
10654;DHT22;5375;51.250;6.776;2023-07-13T12:10:27;25.20;49.10
10654;DHT22;5375;51.250;6.776;2023-07-13T12:13:03;25.20;49.00
10654;DHT22;5375;51.250;6.776;2023-07-13T12:15:40;25.20;48.90
10654;DHT22;5375;51.250;6.776;2023-07-13T12:18:19;25.20;48.80
10654;DHT22;5375;51.250;6.776;2023-07-13T12:20:46;25.20;48.70
10654;DHT22;5375;51.250;6.776;2023-07-13T12:23:33;25.20;48.70
10654;DHT22;5375;51.250;6.776;2023-07-13T12:26:02;25.20;48.60
10654;DHT22;5375;51.250;6.776;2023-07-13T12:31:01;25.20;48.40
10654;DHT22;5375;51.250;6.776;2023-07-13T12:33:31;25.20;48.40
10654;DHT22;5375;51.250;6.776;2023-07-13T12:36:00;25.20;48.40
10654;DHT22;5375;51.250;6.776;2023-07-13T12:38:27;25.30;48.50
10654;DHT22;5375;51.250;6.776;2023-07-13T12:43:21;25.20;48.60
10654;DHT22;5375;51.250;6.776;2023-07-13T12:46:04;25.30;48.80
10654;DHT22;5375;51.250;6.776;2023-07-13T12:48:38;25.20;48.70
10654;DHT22;5375;51.250;6.776;2023-07-13T12:51:03;25.20;48.70
10654;DHT22;5375;51.250;6.776;2023-07-13T12:53:30;25.20;48.60
10654;DHT22;5375;51.250;6.776;2023-07-13T12:56:02;25.30;48.50
10654;DHT22;5375;51.250;6.776;2023-07-13T13:01:01;25.30;48.50
10654;DHT22;5375;51.250;6.776;2023-07-13T13:03:35;25.30;48.40
10654;DHT22;5375;51.250;6.776;2023-07-13T13:08:31;25.30;48.20
10654;DHT22;5375;51.250;6.776;2023-07-13T13:10:56;25.30;48.10
10654;DHT22;5375;51.250;6.776;2023-07-13T13:18:19;25.30;47.80
10654;DHT22;5375;51.250;6.776;2023-07-13T13:20:46;25.40;47.90
10654;DHT22;5375;51.250;6.776;2023-07-13T13:23:16;25.30;47.80
10654;DHT22;5375;51.250;6.776;2023-07-13T13:25:47;25.40;47.90
10654;DHT22;5375;51.250;6.776;2023-07-13T13:28:15;25.40;47.90
10654;DHT22;5375;51.250;6.776;2023-07-13T13:30:42;25.40;47.90
10654;DHT22;5375;51.250;6.776;2023-07-13T13:33:13;25.40;47.80
10654;DHT22;5375;51.250;6.776;2023-07-13T13:35:41;25.40;47.80
10654;DHT22;5375;51.250;6.776;2023-07-13T13:38:15;25.40;47.80
10654;DHT22;5375;51.250;6.776;2023-07-13T13:40:42;25.40;47.80
10654;DHT22;5375;51.250;6.776;2023-07-13T13:43:21;25.40;47.60
10654;DHT22;5375;51.250;6.776;2023-07-13T13:45:52;25.40;47.60
10654;DHT22;5375;51.250;6.776;2023-07-13T13:48:21;25.40;47.60
10654;DHT22;5375;51.250;6.776;2023-07-13T14:03:18;25.40;47.60
10654;DHT22;5375;51.250;6.776;2023-07-13T14:08:14;25.40;47.60
10654;DHT22;5375;51.250;6.776;2023-07-13T14:10:40;25.40;47.60
10654;DHT22;5375;51.250;6.776;2023-07-13T14:13:18;25.40;47.60
10654;DHT22;5375;51.250;6.776;2023-07-13T14:15:45;25.40;47.60
10654;DHT22;5375;51.250;6.776;2023-07-13T14:20:37;25.40;47.70
10654;DHT22;5375;51.250;6.776;2023-07-13T14:23:03;25.30;47.70
10654;DHT22;5375;51.250;6.776;2023-07-13T14:27:58;25.40;47.90
10654;DHT22;5375;51.250;6.776;2023-07-13T14:35:20;25.40;48.00
10654;DHT22;5375;51.250;6.776;2023-07-13T14:37:47;25.40;48.80
10654;DHT22;5375;51.250;6.776;2023-07-13T14:42:39;25.40;48.90
10654;DHT22;5375;51.250;6.776;2023-07-13T14:45:05;25.40;49.00
10654;DHT22;5375;51.250;6.776;2023-07-13T14:47:31;25.40;49.20
10654;DHT22;5375;51.250;6.776;2023-07-13T14:49:56;25.40;49.00
10654;DHT22;5375;51.250;6.776;2023-07-13T14:52:23;25.40;49.10
10654;DHT22;5375;51.250;6.776;2023-07-13T14:54:49;25.40;49.10
10654;DHT22;5375;51.250;6.776;2023-07-13T14:57:19;24.80;48.80
10654;DHT22;5375;51.250;6.776;2023-07-13T14:59:45;25.40;49.10
10654;DHT22;5375;51.250;6.776;2023-07-13T15:02:23;25.40;49.20
10654;DHT22;5375;51.250;6.776;2023-07-13T15:04:51;25.30;48.60
10654;DHT22;5375;51.250;6.776;2023-07-13T15:07:16;25.30;49.20
10654;DHT22;5375;51.250;6.776;2023-07-13T15:09:44;25.40;49.20
10654;DHT22;5375;51.250;6.776;2023-07-13T15:12:10;25.40;49.30
10654;DHT22;5375;51.250;6.776;2023-07-13T15:14:35;25.30;49.30
10654;DHT22;5375;51.250;6.776;2023-07-13T15:17:01;25.30;49.30
10654;DHT22;5375;51.250;6.776;2023-07-13T15:19:27;25.30;49.40
10654;DHT22;5375;51.250;6.776;2023-07-13T15:21:54;25.30;49.40
10654;DHT22;5375;51.250;6.776;2023-07-13T15:24:23;25.30;49.40
10654;DHT22;5375;51.250;6.776;2023-07-13T15:26:49;25.30;49.40
10654;DHT22;5375;51.250;6.776;2023-07-13T15:29:15;25.30;49.40
10654;DHT22;5375;51.250;6.776;2023-07-13T15:31:41;25.30;49.50
10654;DHT22;5375;51.250;6.776;2023-07-13T15:34:15;25.30;49.50
10654;DHT22;5375;51.250;6.776;2023-07-13T15:36:42;25.30;49.50
10654;DHT22;5375;51.250;6.776;2023-07-13T15:39:14;25.30;49.60
10654;DHT22;5375;51.250;6.776;2023-07-13T15:41:41;25.30;49.60
10654;DHT22;5375;51.250;6.776;2023-07-13T15:46:46;25.30;49.60
10654;DHT22;5375;51.250;6.776;2023-07-13T15:49:11;25.30;49.60
10654;DHT22;5375;51.250;6.776;2023-07-13T15:51:37;25.30;49.70
10654;DHT22;5375;51.250;6.776;2023-07-13T15:54:04;25.30;49.70
10654;DHT22;5375;51.250;6.776;2023-07-13T15:56:35;25.30;49.70
10654;DHT22;5375;51.250;6.776;2023-07-13T15:59:02;25.30;49.70
10654;DHT22;5375;51.250;6.776;2023-07-13T16:01:29;25.30;49.70
10654;DHT22;5375;51.250;6.776;2023-07-13T16:03:55;25.30;49.70
10654;DHT22;5375;51.250;6.776;2023-07-13T16:06:28;25.30;49.70
10654;DHT22;5375;51.250;6.776;2023-07-13T16:08:54;25.30;49.80
10654;DHT22;5375;51.250;6.776;2023-07-13T16:11:24;25.30;49.80
10654;DHT22;5375;51.250;6.776;2023-07-13T16:13:51;25.30;49.80
10654;DHT22;5375;51.250;6.776;2023-07-13T16:16:22;25.30;49.80
10654;DHT22;5375;51.250;6.776;2023-07-13T16:18:55;25.30;49.90
10654;DHT22;5375;51.250;6.776;2023-07-13T16:21:30;25.30;49.90
10654;DHT22;5375;51.250;6.776;2023-07-13T16:23:58;25.30;49.90
10654;DHT22;5375;51.250;6.776;2023-07-13T16:26:32;25.30;49.90
10654;DHT22;5375;51.250;6.776;2023-07-13T16:29:15;25.30;50.00
10654;DHT22;5375;51.250;6.776;2023-07-13T16:31:41;25.30;49.90
10654;DHT22;5375;51.250;6.776;2023-07-13T16:34:07;25.30;50.00
10654;DHT22;5375;51.250;6.776;2023-07-13T16:36:36;25.30;50.00
10654;DHT22;5375;51.250;6.776;2023-07-13T16:39:12;25.30;50.00
10654;DHT22;5375;51.250;6.776;2023-07-13T16:41:39;25.30;50.00
10654;DHT22;5375;51.250;6.776;2023-07-13T16:44:11;25.30;50.00
10654;DHT22;5375;51.250;6.776;2023-07-13T16:46:37;25.30;50.70
10654;DHT22;5375;51.250;6.776;2023-07-13T16:49:10;25.30;50.10
10654;DHT22;5375;51.250;6.776;2023-07-13T16:51:45;25.30;50.10
10654;DHT22;5375;51.250;6.776;2023-07-13T16:54:10;25.30;50.10
10654;DHT22;5375;51.250;6.776;2023-07-13T16:56:36;25.30;50.10
10654;DHT22;5375;51.250;6.776;2023-07-13T16:59:04;25.30;50.10
10654;DHT22;5375;51.250;6.776;2023-07-13T17:01:35;25.30;50.10
10654;DHT22;5375;51.250;6.776;2023-07-13T17:04:01;25.30;50.10
10654;DHT22;5375;51.250;6.776;2023-07-13T17:06:29;25.30;50.10
10654;DHT22;5375;51.250;6.776;2023-07-13T17:08:55;25.30;50.20
10654;DHT22;5375;51.250;6.776;2023-07-13T17:11:21;25.30;50.20
10654;DHT22;5375;51.250;6.776;2023-07-13T17:13:48;25.30;50.20
10654;DHT22;5375;51.250;6.776;2023-07-13T17:16:13;25.30;50.20
10654;DHT22;5375;51.250;6.776;2023-07-13T17:18:39;25.30;50.20
10654;DHT22;5375;51.250;6.776;2023-07-13T17:21:06;25.30;50.20
10654;DHT22;5375;51.250;6.776;2023-07-13T17:23:33;25.30;50.20
10654;DHT22;5375;51.250;6.776;2023-07-13T17:26:00;25.30;50.20
10654;DHT22;5375;51.250;6.776;2023-07-13T17:28:26;25.30;50.20
10654;DHT22;5375;51.250;6.776;2023-07-13T17:30:54;25.30;50.20
10654;DHT22;5375;51.250;6.776;2023-07-13T17:33:26;25.20;49.60
10654;DHT22;5375;51.250;6.776;2023-07-13T17:35:56;25.30;50.20
10654;DHT22;5375;51.250;6.776;2023-07-13T17:38:23;25.30;50.20
10654;DHT22;5375;51.250;6.776;2023-07-13T17:40:54;25.30;50.20
10654;DHT22;5375;51.250;6.776;2023-07-13T17:43:19;25.30;50.20
10654;DHT22;5375;51.250;6.776;2023-07-13T17:45:45;25.30;50.30
10654;DHT22;5375;51.250;6.776;2023-07-13T17:48:11;25.30;50.20
10654;DHT22;5375;51.250;6.776;2023-07-13T17:50:37;25.30;50.20
10654;DHT22;5375;51.250;6.776;2023-07-13T17:53:18;25.30;50.20
10654;DHT22;5375;51.250;6.776;2023-07-13T17:55:44;25.30;50.30
10654;DHT22;5375;51.250;6.776;2023-07-13T17:58:10;25.30;50.20
10654;DHT22;5375;51.250;6.776;2023-07-13T18:00:38;25.30;50.20
10654;DHT22;5375;51.250;6.776;2023-07-13T18:05:35;25.30;50.30
10654;DHT22;5375;51.250;6.776;2023-07-13T18:08:02;25.30;50.30
10654;DHT22;5375;51.250;6.776;2023-07-13T18:10:32;25.30;50.30
10654;DHT22;5375;51.250;6.776;2023-07-13T18:12:58;25.30;50.30
10654;DHT22;5375;51.250;6.776;2023-07-13T18:15:28;25.30;50.30
10654;DHT22;5375;51.250;6.776;2023-07-13T18:17:54;25.30;50.30
10654;DHT22;5375;51.250;6.776;2023-07-13T18:20:21;25.30;50.30
10654;DHT22;5375;51.250;6.776;2023-07-13T18:22:51;25.30;50.30
10654;DHT22;5375;51.250;6.776;2023-07-13T18:25:22;25.30;50.40
10654;DHT22;5375;51.250;6.776;2023-07-13T18:27:48;25.30;50.50
10654;DHT22;5375;51.250;6.776;2023-07-13T18:30:19;25.30;50.50
10654;DHT22;5375;51.250;6.776;2023-07-13T18:32:53;25.30;50.00
10654;DHT22;5375;51.250;6.776;2023-07-13T18:35:32;25.30;50.50
10654;DHT22;5375;51.250;6.776;2023-07-13T18:37:59;25.30;50.50
10654;DHT22;5375;51.250;6.776;2023-07-13T18:40:25;25.30;50.60
10654;DHT22;5375;51.250;6.776;2023-07-13T18:42:53;25.30;50.50
10654;DHT22;5375;51.250;6.776;2023-07-13T18:45:19;25.30;50.50
10654;DHT22;5375;51.250;6.776;2023-07-13T18:47:46;25.30;50.50
10654;DHT22;5375;51.250;6.776;2023-07-13T18:50:18;25.30;50.60
10654;DHT22;5375;51.250;6.776;2023-07-13T18:52:45;25.30;50.60
10654;DHT22;5375;51.250;6.776;2023-07-13T18:55:16;25.30;50.60
10654;DHT22;5375;51.250;6.776;2023-07-13T18:57:42;25.30;50.60
10654;DHT22;5375;51.250;6.776;2023-07-13T19:00:08;25.30;50.60
10654;DHT22;5375;51.250;6.776;2023-07-13T19:02:34;25.30;50.60
10654;DHT22;5375;51.250;6.776;2023-07-13T19:05:00;25.30;50.70
10654;DHT22;5375;51.250;6.776;2023-07-13T19:07:26;25.30;50.70
10654;DHT22;5375;51.250;6.776;2023-07-13T19:09:54;25.30;50.70
10654;DHT22;5375;51.250;6.776;2023-07-13T19:12:23;25.30;50.10
10654;DHT22;5375;51.250;6.776;2023-07-13T19:14:51;25.30;50.70
10654;DHT22;5375;51.250;6.776;2023-07-13T19:17:18;25.30;50.70
10654;DHT22;5375;51.250;6.776;2023-07-13T19:19:44;25.30;51.40
10654;DHT22;5375;51.250;6.776;2023-07-13T19:22:13;25.30;50.70
10654;DHT22;5375;51.250;6.776;2023-07-13T19:24:40;25.30;50.80
10654;DHT22;5375;51.250;6.776;2023-07-13T19:27:12;25.30;50.90
10654;DHT22;5375;51.250;6.776;2023-07-13T19:29:40;25.40;50.80
10654;DHT22;5375;51.250;6.776;2023-07-13T19:32:08;25.30;50.70
10654;DHT22;5375;51.250;6.776;2023-07-13T19:34:34;25.30;50.70
10654;DHT22;5375;51.250;6.776;2023-07-13T19:37:03;25.30;50.70
10654;DHT22;5375;51.250;6.776;2023-07-13T19:39:37;25.30;50.80
10654;DHT22;5375;51.250;6.776;2023-07-13T19:42:20;25.30;50.80
10654;DHT22;5375;51.250;6.776;2023-07-13T19:44:47;25.30;50.90
10654;DHT22;5375;51.250;6.776;2023-07-13T19:47:14;25.30;50.90
10654;DHT22;5375;51.250;6.776;2023-07-13T19:49:40;25.20;50.80
10654;DHT22;5375;51.250;6.776;2023-07-13T19:52:17;25.20;50.80
10654;DHT22;5375;51.250;6.776;2023-07-13T19:54:44;25.20;50.90
10654;DHT22;5375;51.250;6.776;2023-07-13T19:57:18;26.20;51.60
10654;DHT22;5375;51.250;6.776;2023-07-13T19:59:44;25.20;51.00
10654;DHT22;5375;51.250;6.776;2023-07-13T20:02:18;25.20;51.00
10654;DHT22;5375;51.250;6.776;2023-07-13T20:04:43;25.20;51.00
10654;DHT22;5375;51.250;6.776;2023-07-13T20:07:17;25.20;51.10
10654;DHT22;5375;51.250;6.776;2023-07-13T20:09:45;25.20;51.10
10654;DHT22;5375;51.250;6.776;2023-07-13T20:12:21;25.20;51.10
10654;DHT22;5375;51.250;6.776;2023-07-13T20:14:48;25.20;51.10
10654;DHT22;5375;51.250;6.776;2023-07-13T20:17:30;25.20;51.10
10654;DHT22;5375;51.250;6.776;2023-07-13T20:19:57;25.20;51.20
10654;DHT22;5375;51.250;6.776;2023-07-13T20:22:23;25.20;51.20
10654;DHT22;5375;51.250;6.776;2023-07-13T20:24:48;25.20;51.20
10654;DHT22;5375;51.250;6.776;2023-07-13T20:27:14;25.20;51.30
10654;DHT22;5375;51.250;6.776;2023-07-13T20:29:44;25.20;51.20
10654;DHT22;5375;51.250;6.776;2023-07-13T20:32:10;25.20;51.30
10654;DHT22;5375;51.250;6.776;2023-07-13T20:34:38;25.20;51.30
10654;DHT22;5375;51.250;6.776;2023-07-13T20:39:53;25.20;51.40
10654;DHT22;5375;51.250;6.776;2023-07-13T20:42:19;25.20;51.40
10654;DHT22;5375;51.250;6.776;2023-07-13T20:44:45;25.20;51.40
10654;DHT22;5375;51.250;6.776;2023-07-13T20:47:15;25.20;51.40
10654;DHT22;5375;51.250;6.776;2023-07-13T20:49:41;25.10;51.40
10654;DHT22;5375;51.250;6.776;2023-07-13T20:52:11;25.10;51.40
10654;DHT22;5375;51.250;6.776;2023-07-13T20:54:40;25.10;51.40
10654;DHT22;5375;51.250;6.776;2023-07-13T20:57:10;25.10;51.40
10654;DHT22;5375;51.250;6.776;2023-07-13T20:59:36;25.10;51.40
10654;DHT22;5375;51.250;6.776;2023-07-13T21:02:02;25.10;51.50
10654;DHT22;5375;51.250;6.776;2023-07-13T21:04:27;25.10;51.50
10654;DHT22;5375;51.250;6.776;2023-07-13T21:06:53;25.10;51.00
10654;DHT22;5375;51.250;6.776;2023-07-13T21:09:20;25.10;51.50
10654;DHT22;5375;51.250;6.776;2023-07-13T21:11:46;25.10;51.50
10654;DHT22;5375;51.250;6.776;2023-07-13T21:14:12;25.10;51.60
10654;DHT22;5375;51.250;6.776;2023-07-13T21:16:37;25.10;51.60
10654;DHT22;5375;51.250;6.776;2023-07-13T21:19:03;25.10;51.60
10654;DHT22;5375;51.250;6.776;2023-07-13T21:21:29;25.10;51.60
10654;DHT22;5375;51.250;6.776;2023-07-13T21:23:56;25.10;51.60
10654;DHT22;5375;51.250;6.776;2023-07-13T21:26:22;25.10;51.60
10654;DHT22;5375;51.250;6.776;2023-07-13T21:28:48;25.10;51.60
10654;DHT22;5375;51.250;6.776;2023-07-13T21:31:22;25.10;51.70
10654;DHT22;5375;51.250;6.776;2023-07-13T21:33:48;25.10;51.70
10654;DHT22;5375;51.250;6.776;2023-07-13T21:36:14;25.10;51.70
10654;DHT22;5375;51.250;6.776;2023-07-13T21:38:41;25.10;51.70
10654;DHT22;5375;51.250;6.776;2023-07-13T21:41:24;25.10;51.70
10654;DHT22;5375;51.250;6.776;2023-07-13T21:43:51;25.10;51.70
10654;DHT22;5375;51.250;6.776;2023-07-13T21:46:16;25.00;51.70
10654;DHT22;5375;51.250;6.776;2023-07-13T21:48:42;25.10;51.80
10654;DHT22;5375;51.250;6.776;2023-07-13T21:51:20;25.00;51.70
10654;DHT22;5375;51.250;6.776;2023-07-13T21:53:48;25.00;51.70
10654;DHT22;5375;51.250;6.776;2023-07-13T21:56:15;25.00;51.70
10654;DHT22;5375;51.250;6.776;2023-07-13T21:58:41;25.00;51.70